sensor_id;sensor_type;location;lat;lon;timestamp;P1;durP1;ratioP1;P2;durP2;ratioP2
15055;SDS011;7626;42.674;23.284;2023-07-02T00:00:19;11.38;;;9.15;;
15055;SDS011;7626;42.674;23.284;2023-07-02T00:02:45;9.38;;;6.80;;
15055;SDS011;7626;42.674;23.284;2023-07-02T00:05:12;7.72;;;5.22;;
15055;SDS011;7626;42.674;23.284;2023-07-02T00:07:38;7.28;;;5.20;;
15055;SDS011;7626;42.674;23.284;2023-07-02T00:10:05;7.25;;;5.43;;
15055;SDS011;7626;42.674;23.284;2023-07-02T00:12:31;7.50;;;5.40;;
15055;SDS011;7626;42.674;23.284;2023-07-02T00:14:59;9.27;;;5.70;;
15055;SDS011;7626;42.674;23.284;2023-07-02T00:17:26;11.65;;;8.50;;
15055;SDS011;7626;42.674;23.284;2023-07-02T00:19:52;14.98;;;10.88;;
15055;SDS011;7626;42.674;23.284;2023-07-02T00:22:19;23.13;;;17.05;;
15055;SDS011;7626;42.674;23.284;2023-07-02T00:24:45;15.68;;;13.23;;
15055;SDS011;7626;42.674;23.284;2023-07-02T00:27:12;9.90;;;8.40;;
15055;SDS011;7626;42.674;23.284;2023-07-02T00:29:38;19.83;;;15.65;;
15055;SDS011;7626;42.674;23.284;2023-07-02T00:32:06;12.68;;;10.38;;
15055;SDS011;7626;42.674;23.284;2023-07-02T00:34:33;8.38;;;6.60;;
15055;SDS011;7626;42.674;23.284;2023-07-02T00:36:59;15.18;;;12.52;;
15055;SDS011;7626;42.674;23.284;2023-07-02T00:39:26;12.95;;;9.35;;
15055;SDS011;7626;42.674;23.284;2023-07-02T00:41:53;11.40;;;8.07;;
15055;SDS011;7626;42.674;23.284;2023-07-02T00:44:19;13.70;;;9.13;;
15055;SDS011;7626;42.674;23.284;2023-07-02T00:46:46;13.77;;;10.73;;
15055;SDS011;7626;42.674;23.284;2023-07-02T00:49:13;10.70;;;7.10;;
15055;SDS011;7626;42.674;23.284;2023-07-02T00:51:40;6.95;;;5.32;;
15055;SDS011;7626;42.674;23.284;2023-07-02T00:54:07;6.50;;;4.93;;
15055;SDS011;7626;42.674;23.284;2023-07-02T00:56:34;7.13;;;4.95;;
15055;SDS011;7626;42.674;23.284;2023-07-02T00:59:00;6.18;;;4.60;;
15055;SDS011;7626;42.674;23.284;2023-07-02T01:01:27;5.90;;;4.40;;
15055;SDS011;7626;42.674;23.284;2023-07-02T01:03:56;6.18;;;4.53;;
15055;SDS011;7626;42.674;23.284;2023-07-02T01:06:26;8.50;;;6.53;;
15055;SDS011;7626;42.674;23.284;2023-07-02T01:08:56;6.05;;;5.20;;
15055;SDS011;7626;42.674;23.284;2023-07-02T01:11:24;6.65;;;4.53;;
15055;SDS011;7626;42.674;23.284;2023-07-02T01:13:51;8.55;;;5.50;;
15055;SDS011;7626;42.674;23.284;2023-07-02T01:16:19;8.13;;;5.05;;
15055;SDS011;7626;42.674;23.284;2023-07-02T01:18:45;5.85;;;4.60;;
15055;SDS011;7626;42.674;23.284;2023-07-02T01:21:13;7.25;;;4.57;;
15055;SDS011;7626;42.674;23.284;2023-07-02T01:23:40;6.07;;;4.75;;
15055;SDS011;7626;42.674;23.284;2023-07-02T01:26:07;7.32;;;5.25;;
15055;SDS011;7626;42.674;23.284;2023-07-02T01:28:36;7.93;;;5.05;;
15055;SDS011;7626;42.674;23.284;2023-07-02T01:31:03;7.20;;;5.47;;
15055;SDS011;7626;42.674;23.284;2023-07-02T01:33:29;7.13;;;4.75;;
15055;SDS011;7626;42.674;23.284;2023-07-02T01:35:56;8.25;;;5.93;;
15055;SDS011;7626;42.674;23.284;2023-07-02T01:38:24;7.50;;;5.30;;
15055;SDS011;7626;42.674;23.284;2023-07-02T01:40:50;10.07;;;5.95;;
15055;SDS011;7626;42.674;23.284;2023-07-02T01:43:17;7.00;;;4.68;;
15055;SDS011;7626;42.674;23.284;2023-07-02T01:45:44;9.90;;;5.47;;
15055;SDS011;7626;42.674;23.284;2023-07-02T01:48:11;6.45;;;5.28;;
15055;SDS011;7626;42.674;23.284;2023-07-02T01:50:37;7.97;;;5.47;;
15055;SDS011;7626;42.674;23.284;2023-07-02T01:53:04;6.05;;;5.32;;
15055;SDS011;7626;42.674;23.284;2023-07-02T01:55:32;8.07;;;5.07;;
15055;SDS011;7626;42.674;23.284;2023-07-02T01:57:58;10.02;;;6.45;;
15055;SDS011;7626;42.674;23.284;2023-07-02T02:00:25;11.15;;;5.80;;
15055;SDS011;7626;42.674;23.284;2023-07-02T02:02:51;7.53;;;5.95;;
15055;SDS011;7626;42.674;23.284;2023-07-02T02:05:18;7.80;;;5.55;;
15055;SDS011;7626;42.674;23.284;2023-07-02T02:07:44;6.70;;;5.40;;
15055;SDS011;7626;42.674;23.284;2023-07-02T02:10:11;8.27;;;5.55;;
15055;SDS011;7626;42.674;23.284;2023-07-02T02:12:41;8.40;;;5.68;;
15055;SDS011;7626;42.674;23.284;2023-07-02T02:15:07;8.33;;;5.97;;
15055;SDS011;7626;42.674;23.284;2023-07-02T02:17:34;6.65;;;5.25;;
15055;SDS011;7626;42.674;23.284;2023-07-02T02:20:00;8.10;;;5.68;;
15055;SDS011;7626;42.674;23.284;2023-07-02T02:22:28;9.13;;;5.72;;
15055;SDS011;7626;42.674;23.284;2023-07-02T02:24:54;6.93;;;5.50;;
15055;SDS011;7626;42.674;23.284;2023-07-02T02:27:21;6.28;;;5.15;;
15055;SDS011;7626;42.674;23.284;2023-07-02T02:29:49;8.02;;;5.75;;
15055;SDS011;7626;42.674;23.284;2023-07-02T02:32:15;8.52;;;5.85;;
15055;SDS011;7626;42.674;23.284;2023-07-02T02:34:44;7.57;;;5.10;;
15055;SDS011;7626;42.674;23.284;2023-07-02T02:37:11;7.32;;;5.70;;
15055;SDS011;7626;42.674;23.284;2023-07-02T02:39:37;9.05;;;5.95;;
15055;SDS011;7626;42.674;23.284;2023-07-02T02:42:04;8.38;;;5.70;;
15055;SDS011;7626;42.674;23.284;2023-07-02T02:44:31;7.07;;;5.55;;
15055;SDS011;7626;42.674;23.284;2023-07-02T02:46:59;7.88;;;5.70;;
15055;SDS011;7626;42.674;23.284;2023-07-02T02:49:26;11.00;;;6.68;;
15055;SDS011;7626;42.674;23.284;2023-07-02T02:51:52;8.43;;;6.30;;
15055;SDS011;7626;42.674;23.284;2023-07-02T02:54:19;7.53;;;5.13;;
15055;SDS011;7626;42.674;23.284;2023-07-02T02:56:45;9.63;;;6.07;;
15055;SDS011;7626;42.674;23.284;2023-07-02T02:59:12;8.40;;;6.03;;
15055;SDS011;7626;42.674;23.284;2023-07-02T03:01:38;6.93;;;5.05;;
15055;SDS011;7626;42.674;23.284;2023-07-02T03:04:06;8.23;;;5.45;;
15055;SDS011;7626;42.674;23.284;2023-07-02T03:06:33;6.70;;;5.15;;
15055;SDS011;7626;42.674;23.284;2023-07-02T03:08:59;8.38;;;5.03;;
15055;SDS011;7626;42.674;23.284;2023-07-02T03:11:26;8.57;;;5.10;;
15055;SDS011;7626;42.674;23.284;2023-07-02T03:13:52;7.85;;;5.43;;
15055;SDS011;7626;42.674;23.284;2023-07-02T03:16:19;8.93;;;5.97;;
15055;SDS011;7626;42.674;23.284;2023-07-02T03:18:46;7.30;;;5.03;;
15055;SDS011;7626;42.674;23.284;2023-07-02T03:21:14;7.53;;;5.25;;
15055;SDS011;7626;42.674;23.284;2023-07-02T03:23:41;8.77;;;6.15;;
15055;SDS011;7626;42.674;23.284;2023-07-02T03:26:07;9.25;;;5.70;;
15055;SDS011;7626;42.674;23.284;2023-07-02T03:28:33;7.97;;;5.55;;
15055;SDS011;7626;42.674;23.284;2023-07-02T03:31:00;7.25;;;5.05;;
15055;SDS011;7626;42.674;23.284;2023-07-02T03:33:26;8.57;;;6.10;;
15055;SDS011;7626;42.674;23.284;2023-07-02T03:35:53;8.18;;;5.63;;
15055;SDS011;7626;42.674;23.284;2023-07-02T03:38:21;9.90;;;5.72;;
15055;SDS011;7626;42.674;23.284;2023-07-02T03:40:47;8.30;;;5.50;;
15055;SDS011;7626;42.674;23.284;2023-07-02T03:43:14;9.10;;;5.75;;
15055;SDS011;7626;42.674;23.284;2023-07-02T03:45:40;8.18;;;6.35;;
15055;SDS011;7626;42.674;23.284;2023-07-02T03:48:07;6.93;;;5.68;;
15055;SDS011;7626;42.674;23.284;2023-07-02T03:50:33;9.73;;;5.70;;
15055;SDS011;7626;42.674;23.284;2023-07-02T03:53:00;7.13;;;5.55;;
15055;SDS011;7626;42.674;23.284;2023-07-02T03:55:28;7.10;;;5.28;;
15055;SDS011;7626;42.674;23.284;2023-07-02T03:57:54;8.80;;;5.65;;
15055;SDS011;7626;42.674;23.284;2023-07-02T04:00:21;9.82;;;5.65;;
15055;SDS011;7626;42.674;23.284;2023-07-02T04:02:47;9.52;;;6.00;;
15055;SDS011;7626;42.674;23.284;2023-07-02T04:05:14;9.80;;;5.78;;
15055;SDS011;7626;42.674;23.284;2023-07-02T04:07:41;7.43;;;6.00;;
15055;SDS011;7626;42.674;23.284;2023-07-02T04:10:08;8.73;;;5.90;;
15055;SDS011;7626;42.674;23.284;2023-07-02T04:12:36;7.25;;;5.47;;
15055;SDS011;7626;42.674;23.284;2023-07-02T04:15:02;8.20;;;5.85;;
15055;SDS011;7626;42.674;23.284;2023-07-02T04:17:29;8.32;;;5.65;;
15055;SDS011;7626;42.674;23.284;2023-07-02T04:19:56;8.00;;;5.45;;
15055;SDS011;7626;42.674;23.284;2023-07-02T04:22:23;7.13;;;5.47;;
15055;SDS011;7626;42.674;23.284;2023-07-02T04:24:50;8.00;;;5.40;;
15055;SDS011;7626;42.674;23.284;2023-07-02T04:27:16;7.90;;;5.45;;
15055;SDS011;7626;42.674;23.284;2023-07-02T04:29:44;8.15;;;5.82;;
15055;SDS011;7626;42.674;23.284;2023-07-02T04:32:11;8.07;;;5.70;;
15055;SDS011;7626;42.674;23.284;2023-07-02T04:34:38;8.05;;;6.05;;
15055;SDS011;7626;42.674;23.284;2023-07-02T04:37:04;7.97;;;5.75;;
15055;SDS011;7626;42.674;23.284;2023-07-02T04:39:31;8.30;;;5.82;;
15055;SDS011;7626;42.674;23.284;2023-07-02T04:41:59;7.35;;;5.40;;
15055;SDS011;7626;42.674;23.284;2023-07-02T04:44:25;9.38;;;5.93;;
15055;SDS011;7626;42.674;23.284;2023-07-02T04:46:56;7.13;;;5.20;;
15055;SDS011;7626;42.674;23.284;2023-07-02T04:49:23;8.25;;;5.78;;
15055;SDS011;7626;42.674;23.284;2023-07-02T04:51:49;7.68;;;5.22;;
15055;SDS011;7626;42.674;23.284;2023-07-02T04:54:15;7.65;;;5.43;;
15055;SDS011;7626;42.674;23.284;2023-07-02T04:56:42;7.45;;;5.53;;
15055;SDS011;7626;42.674;23.284;2023-07-02T04:59:08;7.80;;;5.28;;
15055;SDS011;7626;42.674;23.284;2023-07-02T05:01:35;9.60;;;5.82;;
15055;SDS011;7626;42.674;23.284;2023-07-02T05:04:04;9.77;;;5.43;;
15055;SDS011;7626;42.674;23.284;2023-07-02T05:06:31;8.68;;;5.72;;
15055;SDS011;7626;42.674;23.284;2023-07-02T05:08:58;9.23;;;5.90;;
15055;SDS011;7626;42.674;23.284;2023-07-02T05:11:24;7.82;;;6.03;;
15055;SDS011;7626;42.674;23.284;2023-07-02T05:13:51;12.90;;;6.05;;
15055;SDS011;7626;42.674;23.284;2023-07-02T05:16:17;9.88;;;5.80;;
15055;SDS011;7626;42.674;23.284;2023-07-02T05:18:44;10.05;;;5.80;;
15055;SDS011;7626;42.674;23.284;2023-07-02T05:21:12;7.90;;;6.05;;
15055;SDS011;7626;42.674;23.284;2023-07-02T05:23:38;8.90;;;5.38;;
15055;SDS011;7626;42.674;23.284;2023-07-02T05:26:05;10.10;;;5.68;;
15055;SDS011;7626;42.674;23.284;2023-07-02T05:28:31;12.15;;;5.57;;
15055;SDS011;7626;42.674;23.284;2023-07-02T05:30:58;9.43;;;5.72;;
15055;SDS011;7626;42.674;23.284;2023-07-02T05:33:24;8.05;;;5.47;;
15055;SDS011;7626;42.674;23.284;2023-07-02T05:35:51;9.55;;;5.78;;
15055;SDS011;7626;42.674;23.284;2023-07-02T05:38:18;16.23;;;12.82;;
15055;SDS011;7626;42.674;23.284;2023-07-02T05:40:45;13.27;;;8.15;;
15055;SDS011;7626;42.674;23.284;2023-07-02T05:43:12;8.50;;;6.65;;
15055;SDS011;7626;42.674;23.284;2023-07-02T05:45:38;8.90;;;6.15;;
15055;SDS011;7626;42.674;23.284;2023-07-02T05:48:05;8.80;;;6.72;;
15055;SDS011;7626;42.674;23.284;2023-07-02T05:50:32;13.43;;;10.27;;
15055;SDS011;7626;42.674;23.284;2023-07-02T05:52:58;19.40;;;13.25;;
15055;SDS011;7626;42.674;23.284;2023-07-02T05:55:26;15.95;;;10.13;;
15055;SDS011;7626;42.674;23.284;2023-07-02T05:57:53;11.93;;;8.75;;
15055;SDS011;7626;42.674;23.284;2023-07-02T06:00:19;11.50;;;8.52;;
15055;SDS011;7626;42.674;23.284;2023-07-02T06:02:46;13.10;;;7.35;;
15055;SDS011;7626;42.674;23.284;2023-07-02T06:05:13;13.63;;;9.80;;
15055;SDS011;7626;42.674;23.284;2023-07-02T06:07:39;11.25;;;8.63;;
15055;SDS011;7626;42.674;23.284;2023-07-02T06:10:06;12.98;;;9.20;;
15055;SDS011;7626;42.674;23.284;2023-07-02T06:12:34;10.90;;;7.55;;
15055;SDS011;7626;42.674;23.284;2023-07-02T06:15:00;10.25;;;6.43;;
15055;SDS011;7626;42.674;23.284;2023-07-02T06:17:27;10.55;;;6.85;;
15055;SDS011;7626;42.674;23.284;2023-07-02T06:19:55;8.95;;;6.00;;
15055;SDS011;7626;42.674;23.284;2023-07-02T06:22:22;8.25;;;5.93;;
15055;SDS011;7626;42.674;23.284;2023-07-02T06:24:48;10.13;;;6.18;;
15055;SDS011;7626;42.674;23.284;2023-07-02T06:27:15;12.05;;;6.35;;
15055;SDS011;7626;42.674;23.284;2023-07-02T06:29:43;10.80;;;7.03;;
15055;SDS011;7626;42.674;23.284;2023-07-02T06:32:09;10.57;;;6.38;;
15055;SDS011;7626;42.674;23.284;2023-07-02T06:34:36;9.55;;;6.30;;
15055;SDS011;7626;42.674;23.284;2023-07-02T06:37:03;7.97;;;5.82;;
15055;SDS011;7626;42.674;23.284;2023-07-02T06:39:29;12.07;;;8.65;;
15055;SDS011;7626;42.674;23.284;2023-07-02T06:41:56;17.77;;;11.10;;
15055;SDS011;7626;42.674;23.284;2023-07-02T06:44:23;12.80;;;8.48;;
15055;SDS011;7626;42.674;23.284;2023-07-02T06:46:51;16.80;;;8.65;;
15055;SDS011;7626;42.674;23.284;2023-07-02T06:49:17;12.50;;;7.38;;
15055;SDS011;7626;42.674;23.284;2023-07-02T06:51:44;10.35;;;6.45;;
15055;SDS011;7626;42.674;23.284;2023-07-02T06:54:11;12.55;;;7.88;;
15055;SDS011;7626;42.674;23.284;2023-07-02T06:56:38;10.45;;;6.93;;
15055;SDS011;7626;42.674;23.284;2023-07-02T06:59:04;10.73;;;6.95;;
15055;SDS011;7626;42.674;23.284;2023-07-02T07:01:31;10.20;;;6.85;;
15055;SDS011;7626;42.674;23.284;2023-07-02T07:03:59;9.63;;;7.00;;
15055;SDS011;7626;42.674;23.284;2023-07-02T07:06:25;8.48;;;6.00;;
15055;SDS011;7626;42.674;23.284;2023-07-02T07:08:52;9.52;;;6.60;;
15055;SDS011;7626;42.674;23.284;2023-07-02T07:11:18;10.90;;;6.13;;
15055;SDS011;7626;42.674;23.284;2023-07-02T07:13:45;9.07;;;6.88;;
15055;SDS011;7626;42.674;23.284;2023-07-02T07:16:11;12.70;;;7.15;;
15055;SDS011;7626;42.674;23.284;2023-07-02T07:18:38;9.27;;;6.65;;
15055;SDS011;7626;42.674;23.284;2023-07-02T07:21:06;12.77;;;7.30;;
15055;SDS011;7626;42.674;23.284;2023-07-02T07:23:32;12.32;;;7.47;;
15055;SDS011;7626;42.674;23.284;2023-07-02T07:25:59;9.52;;;6.70;;
15055;SDS011;7626;42.674;23.284;2023-07-02T07:28:25;8.82;;;6.82;;
15055;SDS011;7626;42.674;23.284;2023-07-02T07:30:52;10.65;;;7.15;;
15055;SDS011;7626;42.674;23.284;2023-07-02T07:33:18;8.65;;;6.60;;
15055;SDS011;7626;42.674;23.284;2023-07-02T07:35:45;9.38;;;6.65;;
15055;SDS011;7626;42.674;23.284;2023-07-02T07:38:14;11.05;;;7.88;;
15055;SDS011;7626;42.674;23.284;2023-07-02T07:40:40;11.35;;;7.43;;
15055;SDS011;7626;42.674;23.284;2023-07-02T07:43:07;10.13;;;6.60;;
15055;SDS011;7626;42.674;23.284;2023-07-02T07:45:33;10.05;;;7.07;;
15055;SDS011;7626;42.674;23.284;2023-07-02T07:48:00;8.98;;;6.45;;
15055;SDS011;7626;42.674;23.284;2023-07-02T07:50:26;9.93;;;7.18;;
15055;SDS011;7626;42.674;23.284;2023-07-02T07:52:53;9.50;;;6.32;;
15055;SDS011;7626;42.674;23.284;2023-07-02T07:55:20;9.38;;;6.72;;
15055;SDS011;7626;42.674;23.284;2023-07-02T07:57:47;8.00;;;5.55;;
15055;SDS011;7626;42.674;23.284;2023-07-02T08:00:14;7.88;;;5.85;;
15055;SDS011;7626;42.674;23.284;2023-07-02T08:02:42;9.40;;;6.68;;
15055;SDS011;7626;42.674;23.284;2023-07-02T08:05:08;8.07;;;6.60;;
15055;SDS011;7626;42.674;23.284;2023-07-02T08:07:35;12.48;;;6.97;;
15055;SDS011;7626;42.674;23.284;2023-07-02T08:10:02;9.43;;;7.00;;
15055;SDS011;7626;42.674;23.284;2023-07-02T08:12:30;9.10;;;6.20;;
15055;SDS011;7626;42.674;23.284;2023-07-02T08:14:56;7.07;;;5.72;;
15055;SDS011;7626;42.674;23.284;2023-07-02T08:17:23;7.00;;;5.55;;
15055;SDS011;7626;42.674;23.284;2023-07-02T08:19:49;7.05;;;5.55;;
15055;SDS011;7626;42.674;23.284;2023-07-02T08:22:16;8.52;;;5.75;;
15055;SDS011;7626;42.674;23.284;2023-07-02T08:24:42;15.57;;;6.10;;
15055;SDS011;7626;42.674;23.284;2023-07-02T08:27:08;6.55;;;5.60;;
15055;SDS011;7626;42.674;23.284;2023-07-02T08:29:37;7.35;;;5.35;;
15055;SDS011;7626;42.674;23.284;2023-07-02T08:32:03;12.70;;;5.97;;
15055;SDS011;7626;42.674;23.284;2023-07-02T08:34:30;10.05;;;6.68;;
15055;SDS011;7626;42.674;23.284;2023-07-02T08:36:56;8.18;;;5.78;;
15055;SDS011;7626;42.674;23.284;2023-07-02T08:39:23;19.98;;;6.35;;
15055;SDS011;7626;42.674;23.284;2023-07-02T08:41:49;13.55;;;6.60;;
15055;SDS011;7626;42.674;23.284;2023-07-02T08:44:19;9.73;;;6.20;;
15055;SDS011;7626;42.674;23.284;2023-07-02T08:46:46;8.45;;;5.70;;
15055;SDS011;7626;42.674;23.284;2023-07-02T08:49:15;7.50;;;5.78;;
15055;SDS011;7626;42.674;23.284;2023-07-02T08:51:45;7.90;;;6.35;;
15055;SDS011;7626;42.674;23.284;2023-07-02T08:54:11;7.72;;;5.88;;
15055;SDS011;7626;42.674;23.284;2023-07-02T08:56:38;6.72;;;5.57;;
15055;SDS011;7626;42.674;23.284;2023-07-02T08:59:05;7.32;;;5.70;;
15055;SDS011;7626;42.674;23.284;2023-07-02T09:01:32;8.05;;;5.88;;
15055;SDS011;7626;42.674;23.284;2023-07-02T09:04:00;8.10;;;5.80;;
15055;SDS011;7626;42.674;23.284;2023-07-02T09:06:27;8.10;;;6.15;;
15055;SDS011;7626;42.674;23.284;2023-07-02T09:09:02;7.65;;;5.75;;
15055;SDS011;7626;42.674;23.284;2023-07-02T09:11:30;8.07;;;6.10;;
15055;SDS011;7626;42.674;23.284;2023-07-02T09:13:57;6.78;;;5.75;;
15055;SDS011;7626;42.674;23.284;2023-07-02T09:16:25;7.10;;;5.88;;
15055;SDS011;7626;42.674;23.284;2023-07-02T09:18:56;8.02;;;5.72;;
15055;SDS011;7626;42.674;23.284;2023-07-02T09:21:25;7.13;;;5.43;;
15055;SDS011;7626;42.674;23.284;2023-07-02T09:23:51;6.38;;;5.38;;
15055;SDS011;7626;42.674;23.284;2023-07-02T09:26:19;6.57;;;5.60;;
15055;SDS011;7626;42.674;23.284;2023-07-02T09:28:45;8.77;;;5.95;;
15055;SDS011;7626;42.674;23.284;2023-07-02T09:31:12;7.57;;;5.65;;
15055;SDS011;7626;42.674;23.284;2023-07-02T09:33:38;7.82;;;6.32;;
15055;SDS011;7626;42.674;23.284;2023-07-02T09:36:05;6.80;;;6.10;;
15055;SDS011;7626;42.674;23.284;2023-07-02T09:38:33;7.22;;;5.45;;
15055;SDS011;7626;42.674;23.284;2023-07-02T09:40:59;6.30;;;5.53;;
15055;SDS011;7626;42.674;23.284;2023-07-02T09:43:26;9.75;;;5.43;;
15055;SDS011;7626;42.674;23.284;2023-07-02T09:45:54;8.82;;;5.90;;
15055;SDS011;7626;42.674;23.284;2023-07-02T09:48:21;7.50;;;5.38;;
15055;SDS011;7626;42.674;23.284;2023-07-02T09:50:50;7.03;;;5.43;;
15055;SDS011;7626;42.674;23.284;2023-07-02T09:53:17;6.35;;;5.30;;
15055;SDS011;7626;42.674;23.284;2023-07-02T09:55:45;6.50;;;5.13;;
15055;SDS011;7626;42.674;23.284;2023-07-02T09:58:12;6.05;;;5.45;;
15055;SDS011;7626;42.674;23.284;2023-07-02T10:00:39;6.10;;;5.28;;
15055;SDS011;7626;42.674;23.284;2023-07-02T10:03:05;6.25;;;4.88;;
15055;SDS011;7626;42.674;23.284;2023-07-02T10:05:32;6.32;;;5.35;;
15055;SDS011;7626;42.674;23.284;2023-07-02T10:10:48;7.55;;;5.28;;
15055;SDS011;7626;42.674;23.284;2023-07-02T10:13:14;6.32;;;5.65;;
15055;SDS011;7626;42.674;23.284;2023-07-02T10:15:41;8.65;;;5.70;;
15055;SDS011;7626;42.674;23.284;2023-07-02T10:18:07;7.00;;;5.20;;
15055;SDS011;7626;42.674;23.284;2023-07-02T10:20:34;5.10;;;4.57;;
15055;SDS011;7626;42.674;23.284;2023-07-02T10:23:01;5.32;;;4.55;;
15055;SDS011;7626;42.674;23.284;2023-07-02T10:25:29;7.20;;;5.85;;
15055;SDS011;7626;42.674;23.284;2023-07-02T10:27:57;6.68;;;5.22;;
15055;SDS011;7626;42.674;23.284;2023-07-02T10:30:31;6.18;;;5.00;;
15055;SDS011;7626;42.674;23.284;2023-07-02T10:33:06;6.85;;;5.28;;
15055;SDS011;7626;42.674;23.284;2023-07-02T10:35:33;7.43;;;5.32;;
15055;SDS011;7626;42.674;23.284;2023-07-02T10:38:00;8.25;;;5.30;;
15055;SDS011;7626;42.674;23.284;2023-07-02T10:40:27;6.40;;;5.05;;
15055;SDS011;7626;42.674;23.284;2023-07-02T10:42:54;7.30;;;5.07;;
15055;SDS011;7626;42.674;23.284;2023-07-02T10:45:30;5.30;;;4.80;;
15055;SDS011;7626;42.674;23.284;2023-07-02T10:47:57;7.18;;;5.35;;
15055;SDS011;7626;42.674;23.284;2023-07-02T10:50:23;7.30;;;4.97;;
15055;SDS011;7626;42.674;23.284;2023-07-02T10:52:50;6.47;;;4.90;;
15055;SDS011;7626;42.674;23.284;2023-07-02T10:55:17;5.53;;;5.00;;
15055;SDS011;7626;42.674;23.284;2023-07-02T10:57:44;6.10;;;4.90;;
15055;SDS011;7626;42.674;23.284;2023-07-02T11:00:11;5.28;;;4.35;;
15055;SDS011;7626;42.674;23.284;2023-07-02T11:02:39;4.97;;;4.43;;
15055;SDS011;7626;42.674;23.284;2023-07-02T11:05:06;5.35;;;4.78;;
15055;SDS011;7626;42.674;23.284;2023-07-02T11:07:37;6.43;;;4.82;;
15055;SDS011;7626;42.674;23.284;2023-07-02T11:10:03;5.22;;;4.18;;
15055;SDS011;7626;42.674;23.284;2023-07-02T11:12:30;7.20;;;4.95;;
15055;SDS011;7626;42.674;23.284;2023-07-02T11:15:06;8.05;;;5.15;;
15055;SDS011;7626;42.674;23.284;2023-07-02T11:17:33;5.35;;;4.65;;
15055;SDS011;7626;42.674;23.284;2023-07-02T11:20:01;5.45;;;4.90;;
15055;SDS011;7626;42.674;23.284;2023-07-02T11:22:33;6.93;;;5.00;;
15055;SDS011;7626;42.674;23.284;2023-07-02T11:25:08;5.57;;;4.80;;
15055;SDS011;7626;42.674;23.284;2023-07-02T11:27:35;5.22;;;4.72;;
15055;SDS011;7626;42.674;23.284;2023-07-02T11:30:01;5.50;;;4.30;;
15055;SDS011;7626;42.674;23.284;2023-07-02T11:32:28;5.70;;;4.18;;
15055;SDS011;7626;42.674;23.284;2023-07-02T11:34:54;5.45;;;4.72;;
15055;SDS011;7626;42.674;23.284;2023-07-02T11:37:23;5.80;;;4.53;;
15055;SDS011;7626;42.674;23.284;2023-07-02T11:39:49;6.35;;;4.57;;
15055;SDS011;7626;42.674;23.284;2023-07-02T11:42:16;6.70;;;4.32;;
15055;SDS011;7626;42.674;23.284;2023-07-02T11:44:42;6.43;;;4.72;;
15055;SDS011;7626;42.674;23.284;2023-07-02T11:47:09;5.13;;;4.30;;
15055;SDS011;7626;42.674;23.284;2023-07-02T11:49:35;4.72;;;4.00;;
15055;SDS011;7626;42.674;23.284;2023-07-02T11:52:02;5.38;;;4.25;;
15055;SDS011;7626;42.674;23.284;2023-07-02T11:54:30;6.40;;;3.72;;
15055;SDS011;7626;42.674;23.284;2023-07-02T11:56:56;4.40;;;3.40;;
15055;SDS011;7626;42.674;23.284;2023-07-02T11:59:23;3.85;;;3.42;;
15055;SDS011;7626;42.674;23.284;2023-07-02T12:01:49;6.60;;;3.40;;
15055;SDS011;7626;42.674;23.284;2023-07-02T12:04:16;3.85;;;3.00;;
15055;SDS011;7626;42.674;23.284;2023-07-02T12:06:42;4.03;;;3.40;;
15055;SDS011;7626;42.674;23.284;2023-07-02T12:09:09;5.30;;;3.30;;
15055;SDS011;7626;42.674;23.284;2023-07-02T12:11:37;4.63;;;3.70;;
15055;SDS011;7626;42.674;23.284;2023-07-02T12:14:04;4.25;;;3.33;;
15055;SDS011;7626;42.674;23.284;2023-07-02T12:16:30;4.10;;;3.10;;
15055;SDS011;7626;42.674;23.284;2023-07-02T12:18:57;4.45;;;3.55;;
15055;SDS011;7626;42.674;23.284;2023-07-02T12:21:23;4.05;;;3.53;;
15055;SDS011;7626;42.674;23.284;2023-07-02T12:23:50;4.20;;;3.15;;
15055;SDS011;7626;42.674;23.284;2023-07-02T12:26:16;5.03;;;3.80;;
15055;SDS011;7626;42.674;23.284;2023-07-02T12:28:44;4.60;;;3.90;;
15055;SDS011;7626;42.674;23.284;2023-07-02T12:31:10;5.63;;;4.22;;
15055;SDS011;7626;42.674;23.284;2023-07-02T12:33:38;4.70;;;3.90;;
15055;SDS011;7626;42.674;23.284;2023-07-02T12:36:04;4.63;;;3.97;;
15055;SDS011;7626;42.674;23.284;2023-07-02T12:38:31;5.75;;;4.05;;
15055;SDS011;7626;42.674;23.284;2023-07-02T12:40:57;5.20;;;4.07;;
15055;SDS011;7626;42.674;23.284;2023-07-02T12:43:24;4.93;;;4.10;;
15055;SDS011;7626;42.674;23.284;2023-07-02T12:45:52;4.47;;;3.67;;
15055;SDS011;7626;42.674;23.284;2023-07-02T12:48:18;5.20;;;4.10;;
15055;SDS011;7626;42.674;23.284;2023-07-02T12:50:52;5.60;;;4.15;;
15055;SDS011;7626;42.674;23.284;2023-07-02T12:53:19;4.97;;;4.18;;
15055;SDS011;7626;42.674;23.284;2023-07-02T12:55:46;4.38;;;3.80;;
15055;SDS011;7626;42.674;23.284;2023-07-02T12:58:12;4.85;;;4.20;;
15055;SDS011;7626;42.674;23.284;2023-07-02T13:00:39;5.22;;;4.43;;
15055;SDS011;7626;42.674;23.284;2023-07-02T13:03:09;4.97;;;3.75;;
15055;SDS011;7626;42.674;23.284;2023-07-02T13:05:36;4.97;;;3.95;;
15055;SDS011;7626;42.674;23.284;2023-07-02T13:08:02;5.85;;;4.07;;
15055;SDS011;7626;42.674;23.284;2023-07-02T13:10:29;5.05;;;4.00;;
15055;SDS011;7626;42.674;23.284;2023-07-02T13:12:56;4.90;;;3.85;;
15055;SDS011;7626;42.674;23.284;2023-07-02T13:15:22;6.22;;;4.40;;
15055;SDS011;7626;42.674;23.284;2023-07-02T13:17:49;7.65;;;4.35;;
15055;SDS011;7626;42.674;23.284;2023-07-02T13:20:17;5.63;;;4.10;;
15055;SDS011;7626;42.674;23.284;2023-07-02T13:22:44;5.13;;;4.50;;
15055;SDS011;7626;42.674;23.284;2023-07-02T13:25:10;4.75;;;4.20;;
15055;SDS011;7626;42.674;23.284;2023-07-02T13:27:36;5.75;;;4.32;;
15055;SDS011;7626;42.674;23.284;2023-07-02T13:30:03;5.63;;;4.57;;
15055;SDS011;7626;42.674;23.284;2023-07-02T13:32:30;5.40;;;4.63;;
15055;SDS011;7626;42.674;23.284;2023-07-02T13:34:57;6.47;;;5.13;;
15055;SDS011;7626;42.674;23.284;2023-07-02T13:37:24;7.97;;;6.88;;
15055;SDS011;7626;42.674;23.284;2023-07-02T13:39:51;8.63;;;6.47;;
15055;SDS011;7626;42.674;23.284;2023-07-02T13:42:17;7.03;;;5.25;;
15055;SDS011;7626;42.674;23.284;2023-07-02T13:44:44;6.82;;;4.90;;
15055;SDS011;7626;42.674;23.284;2023-07-02T13:47:11;7.07;;;5.13;;
15055;SDS011;7626;42.674;23.284;2023-07-02T13:49:37;6.78;;;5.00;;
15055;SDS011;7626;42.674;23.284;2023-07-02T13:52:04;5.53;;;4.70;;
15055;SDS011;7626;42.674;23.284;2023-07-02T13:54:32;5.15;;;4.65;;
15055;SDS011;7626;42.674;23.284;2023-07-02T13:56:59;5.57;;;4.82;;
15055;SDS011;7626;42.674;23.284;2023-07-02T13:59:27;8.65;;;5.40;;
15055;SDS011;7626;42.674;23.284;2023-07-02T14:01:53;7.70;;;5.57;;
15055;SDS011;7626;42.674;23.284;2023-07-02T14:04:20;5.95;;;4.40;;
15055;SDS011;7626;42.674;23.284;2023-07-02T14:06:46;7.78;;;5.40;;
15055;SDS011;7626;42.674;23.284;2023-07-02T14:09:13;7.80;;;5.07;;
15055;SDS011;7626;42.674;23.284;2023-07-02T14:11:40;7.45;;;6.03;;
15055;SDS011;7626;42.674;23.284;2023-07-02T14:14:06;5.80;;;4.90;;
15055;SDS011;7626;42.674;23.284;2023-07-02T14:16:34;6.28;;;5.30;;
15055;SDS011;7626;42.674;23.284;2023-07-02T14:19:01;7.15;;;5.50;;
15055;SDS011;7626;42.674;23.284;2023-07-02T14:21:27;9.70;;;5.93;;
15055;SDS011;7626;42.674;23.284;2023-07-02T14:23:54;7.10;;;5.93;;
15055;SDS011;7626;42.674;23.284;2023-07-02T14:26:20;6.93;;;5.50;;
15055;SDS011;7626;42.674;23.284;2023-07-02T14:28:47;10.43;;;8.57;;
15055;SDS011;7626;42.674;23.284;2023-07-02T14:31:13;9.05;;;7.22;;
15055;SDS011;7626;42.674;23.284;2023-07-02T14:33:41;9.63;;;6.95;;
15055;SDS011;7626;42.674;23.284;2023-07-02T14:36:08;11.07;;;8.05;;
15055;SDS011;7626;42.674;23.284;2023-07-02T14:38:34;8.93;;;7.80;;
15055;SDS011;7626;42.674;23.284;2023-07-02T14:41:01;8.88;;;7.57;;
15055;SDS011;7626;42.674;23.284;2023-07-02T14:43:28;10.32;;;7.72;;
15055;SDS011;7626;42.674;23.284;2023-07-02T14:45:55;10.00;;;8.10;;